createdAt,value
2016-11-03T00:04:21.971Z,0
2016-11-03T00:07:39.258Z,0
2016-11-03T00:11:16.331Z,0
2016-11-03T00:14:52.642Z,0
2016-11-03T00:18:29.879Z,0
2016-11-03T00:22:06.908Z,0
2016-11-03T00:25:43.246Z,0
2016-11-03T00:29:21.006Z,0
2016-11-03T00:32:57.375Z,0
2016-11-03T00:36:41.091Z,0
2016-11-03T00:40:17.314Z,0
2016-11-03T00:43:53.644Z,0
2016-11-03T00:47:29.857Z,0
2016-11-03T00:51:06.716Z,0
2016-11-03T00:54:42.980Z,0
2016-11-03T00:58:19.450Z,0
2016-11-03T01:01:56.739Z,0
2016-11-03T01:05:34.512Z,0
2016-11-03T01:14:14.759Z,0
2016-11-03T01:22:03.293Z,0
2016-11-03T01:26:37.047Z,0
2016-11-03T01:30:51.056Z,0
2016-11-03T01:34:28.590Z,0
2016-11-03T01:38:04.952Z,0
2016-11-03T01:42:04.315Z,0
2016-11-03T01:45:22.129Z,0
2016-11-03T01:48:59.828Z,0
2016-11-03T01:52:37.054Z,0
2016-11-03T01:56:41.590Z,0
2016-11-03T02:00:18.209Z,0
2016-11-03T02:04:24.117Z,0
2016-11-03T02:08:28.682Z,0
2016-11-03T02:17:15.712Z,0
2016-11-03T02:20:32.543Z,0
2016-11-03T02:24:38.636Z,0
2016-11-03T02:33:17.376Z,0
2016-11-03T02:41:41.540Z,0
2016-11-03T02:45:21.628Z,0
2016-11-03T02:49:04.896Z,0
2016-11-03T02:52:41.128Z,0
2016-11-03T02:56:47.544Z,0
2016-11-03T03:00:24.439Z,0
2016-11-03T03:04:03.514Z,0
2016-11-03T03:08:28.643Z,0
2016-11-03T03:12:40.599Z,0
2016-11-03T03:16:25.241Z,0
2016-11-03T03:20:03.343Z,0
2016-11-03T03:25:01.747Z,0
2016-11-03T03:28:19.353Z,0
2016-11-03T03:31:56.328Z,0
2016-11-03T03:35:32.498Z,0
2016-11-03T03:39:08.947Z,0
2016-11-03T03:42:46.230Z,0
2016-11-03T03:46:23.337Z,0
2016-11-03T03:50:00.936Z,0
2016-11-03T03:53:37.525Z,0
2016-11-03T03:57:13.588Z,0
2016-11-03T04:00:50.803Z,0
2016-11-03T04:04:27.717Z,0
2016-11-03T04:08:05.421Z,0
2016-11-03T04:11:41.508Z,0
2016-11-03T04:15:19.153Z,0
2016-11-03T04:18:55.829Z,0
2016-11-03T04:22:33.331Z,0
2016-11-03T04:26:09.696Z,0
2016-11-03T04:29:47.517Z,0
2016-11-03T04:33:53.699Z,0
2016-11-03T04:37:32.930Z,0
2016-11-03T04:41:10.112Z,0
2016-11-03T04:44:46.486Z,0
2016-11-03T04:48:24.129Z,0
2016-11-03T04:52:01.254Z,0
2016-11-03T04:55:39.081Z,0
2016-11-03T04:59:41.957Z,0
2016-11-03T05:03:18.845Z,0
2016-11-03T05:06:56.233Z,0
2016-11-03T05:10:33.372Z,0
2016-11-03T05:14:10.130Z,0
2016-11-03T05:17:48.225Z,0
2016-11-03T05:21:27.858Z,0
2016-11-03T05:25:04.907Z,0
2016-11-03T05:28:41.454Z,0
2016-11-03T05:32:18.952Z,0
2016-11-03T05:35:56.276Z,0
2016-11-03T05:39:57.251Z,0
2016-11-03T05:43:33.969Z,0
2016-11-03T05:47:11.433Z,0
2016-11-03T05:50:47.933Z,0
2016-11-03T05:54:25.012Z,0
2016-11-03T05:58:31.108Z,0
2016-11-03T06:06:46.406Z,0
2016-11-03T06:10:03.784Z,0
2016-11-03T06:13:38.482Z,0
2016-11-03T06:17:44.732Z,5
2016-11-03T06:21:52.964Z,5
2016-11-03T06:26:30.734Z,10
2016-11-03T06:30:07.416Z,10
2016-11-03T06:33:39.343Z,15
2016-11-03T06:37:52.147Z,20
2016-11-03T06:41:28.280Z,20
2016-11-03T06:45:34.620Z,25
2016-11-03T06:49:10.610Z,30
2016-11-03T06:52:46.635Z,35
2016-11-03T06:56:22.993Z,35
2016-11-03T06:59:59.776Z,45
2016-11-03T07:03:16.927Z,45
2016-11-03T07:06:53.835Z,50
2016-11-03T07:10:30.837Z,55
2016-11-03T07:14:15.072Z,60
2016-11-03T07:17:51.567Z,65
2016-11-03T07:21:29.799Z,65
2016-11-03T07:25:06.109Z,65
2016-11-03T07:30:04.961Z,75
2016-11-03T07:34:12.443Z,80
2016-11-03T07:37:29.979Z,85
2016-11-03T07:42:35.929Z,85
2016-11-03T07:46:28.527Z,85
2016-11-03T07:53:45.103Z,90
2016-11-03T07:57:54.955Z,95
2016-11-03T08:01:31.443Z,95
2016-11-03T08:05:07.881Z,100
2016-11-03T08:08:44.132Z,105
2016-11-03T08:12:21.716Z,110
2016-11-03T08:15:58.058Z,110
2016-11-03T08:19:34.069Z,110
2016-11-03T08:23:44.770Z,115
2016-11-03T08:27:20.766Z,110
2016-11-03T08:30:57.892Z,110
2016-11-03T08:35:04.458Z,110
2016-11-03T08:38:42.697Z,110
2016-11-03T08:42:18.972Z,105
2016-11-03T08:45:56.213Z,110
2016-11-03T08:49:32.925Z,105
2016-11-03T08:53:09.809Z,105
2016-11-03T08:56:46.644Z,110
2016-11-03T09:00:23.955Z,115
2016-11-03T09:04:00.212Z,115
2016-11-03T09:07:37.968Z,120
2016-11-03T09:11:15.317Z,125
2016-11-03T09:14:51.620Z,120
2016-11-03T09:19:00.393Z,120
2016-11-03T09:22:36.699Z,120
2016-11-03T09:26:13.616Z,130
2016-11-03T09:29:51.450Z,135
2016-11-03T09:33:27.547Z,140
2016-11-03T09:37:05.105Z,145
2016-11-03T09:40:42.850Z,145
2016-11-03T09:44:19.582Z,150
2016-11-03T09:47:56.015Z,150
2016-11-03T09:51:32.949Z,140
2016-11-03T09:55:09.648Z,150
2016-11-03T09:58:46.709Z,150
2016-11-03T10:02:23.353Z,155
2016-11-03T10:06:00.790Z,160
2016-11-03T10:09:37.490Z,165
2016-11-03T10:13:14.816Z,170
2016-11-03T10:16:51.326Z,170
2016-11-03T10:20:28.875Z,170
2016-11-03T10:24:05.079Z,170
2016-11-03T10:27:43.302Z,165
2016-11-03T10:31:19.587Z,170
2016-11-03T10:34:56.636Z,165
2016-11-03T10:38:33.051Z,150
2016-11-03T10:42:11.312Z,170
2016-11-03T10:45:47.930Z,180
2016-11-03T10:49:24.887Z,175
2016-11-03T10:53:01.331Z,165
2016-11-03T10:56:39.317Z,145
2016-11-03T11:00:16.144Z,145
2016-11-03T11:03:53.141Z,160
2016-11-03T11:07:29.486Z,155
2016-11-03T11:11:07.516Z,145
2016-11-03T11:15:13.486Z,130
2016-11-03T11:19:24.343Z,145
2016-11-03T11:23:28.274Z,155
2016-11-03T11:27:31.846Z,145
2016-11-03T11:31:39.642Z,140
2016-11-03T11:35:16.590Z,135
2016-11-03T11:39:51.527Z,130
2016-11-03T11:43:39.585Z,145
2016-11-03T11:47:16.612Z,125
2016-11-03T11:50:53.802Z,130
2016-11-03T11:54:30.247Z,150
2016-11-03T11:58:35.321Z,150
2016-11-03T12:02:11.818Z,150
2016-11-03T12:05:48.417Z,140
2016-11-03T12:14:00.205Z,115
2016-11-03T12:17:17.227Z,125
2016-11-03T12:25:31.123Z,115
2016-11-03T12:29:07.646Z,110
2016-11-03T12:32:45.028Z,105
2016-11-03T12:36:22.605Z,100
2016-11-03T12:39:58.802Z,100
2016-11-03T12:43:35.634Z,105
2016-11-03T12:47:12.710Z,115
2016-11-03T12:50:49.376Z,120
2016-11-03T12:54:26.441Z,110
2016-11-03T12:58:03.353Z,110
2016-11-03T13:01:40.998Z,105
2016-11-03T13:05:38.467Z,105
2016-11-03T13:08:55.401Z,105
2016-11-03T13:12:31.419Z,105
2016-11-03T13:16:08.018Z,105
2016-11-03T13:19:45.625Z,105
2016-11-03T13:23:22.548Z,105
2016-11-03T13:26:59.536Z,110
2016-11-03T13:30:36.540Z,120
2016-11-03T13:39:16.361Z,125
2016-11-03T13:43:00.857Z,115
2016-11-03T13:46:37.482Z,100
2016-11-03T13:50:14.280Z,95
2016-11-03T13:54:46.126Z,85
2016-11-03T13:58:22.171Z,105
2016-11-03T14:02:09.219Z,105
2016-11-03T14:06:15.014Z,95
2016-11-03T14:09:53.115Z,105
2016-11-03T14:13:29.597Z,100
2016-11-03T14:17:06.596Z,95
2016-11-03T14:20:43.260Z,90
2016-11-03T14:24:20.643Z,80
2016-11-03T14:27:57.689Z,75
2016-11-03T14:31:34.710Z,65
2016-11-03T14:35:12.533Z,65
2016-11-03T14:38:48.914Z,65
2016-11-03T14:42:25.455Z,65
2016-11-03T14:46:03.061Z,55
2016-11-03T14:49:39.268Z,45
2016-11-03T14:53:18.115Z,40
2016-11-03T15:05:43.271Z,30
2016-11-03T15:14:52.856Z,25
2016-11-03T15:18:30.964Z,25
2016-11-03T15:22:08.261Z,25
2016-11-03T15:25:45.606Z,20
2016-11-03T15:29:21.926Z,20
2016-11-03T15:32:58.441Z,20
2016-11-03T15:36:35.365Z,15
2016-11-03T15:40:14.339Z,10
2016-11-03T15:43:50.496Z,10
2016-11-03T15:47:26.789Z,5
2016-11-03T15:55:16.139Z,5
2016-11-03T15:59:22.841Z,0
2016-11-03T16:02:59.232Z,0
2016-11-03T16:06:35.575Z,0
2016-11-03T16:10:11.955Z,0
2016-11-03T16:13:48.782Z,0
2016-11-03T16:17:25.039Z,0
2016-11-03T16:21:28.259Z,0
2016-11-03T16:25:47.988Z,0
2016-11-03T16:29:54.742Z,0
2016-11-03T16:34:29.942Z,0
2016-11-03T16:38:06.805Z,0
2016-11-03T16:41:42.964Z,0
2016-11-03T16:45:19.245Z,0
2016-11-03T16:48:55.489Z,0
2016-11-03T16:52:40.550Z,0
2016-11-03T16:56:16.568Z,0
2016-11-03T17:00:47.123Z,0
2016-11-03T17:04:23.439Z,0
2016-11-03T17:08:00.612Z,0
2016-11-03T17:15:44.455Z,0
2016-11-03T17:19:01.630Z,0
2016-11-03T17:22:36.510Z,0
2016-11-03T17:26:13.193Z,0
2016-11-03T17:29:49.459Z,0
2016-11-03T17:33:26.239Z,0
2016-11-03T17:37:04.515Z,0
2016-11-03T17:40:41.321Z,0
2016-11-03T17:44:18.299Z,0
2016-11-03T17:47:55.391Z,0
2016-11-03T17:51:32.167Z,0
2016-11-03T17:56:05.347Z,0
2016-11-03T17:59:41.955Z,0
2016-11-03T18:03:18.790Z,0
2016-11-03T18:07:24.394Z,0
2016-11-03T18:11:01.073Z,0
2016-11-03T18:18:54.946Z,0
2016-11-03T18:22:58.861Z,0
2016-11-03T18:26:35.652Z,0
2016-11-03T18:30:37.159Z,0
2016-11-03T18:34:24.574Z,0
2016-11-03T18:38:01.285Z,0
2016-11-03T18:41:38.723Z,0
2016-11-03T18:45:15.857Z,0
2016-11-03T18:49:25.928Z,0
2016-11-03T18:53:03.046Z,0
2016-11-03T18:56:39.592Z,0
2016-11-03T19:00:16.391Z,0
2016-11-03T19:04:08.665Z,0
2016-11-03T19:07:53.390Z,0
2016-11-03T19:11:49.878Z,0
2016-11-03T19:15:26.924Z,0
2016-11-03T19:19:05.994Z,0
2016-11-03T19:22:51.652Z,0
2016-11-03T19:26:28.632Z,0
2016-11-03T19:30:26.001Z,0
2016-11-03T19:34:03.427Z,0
2016-11-03T19:37:40.506Z,0
2016-11-03T19:40:57.571Z,0
2016-11-03T19:45:26.218Z,0
2016-11-03T19:49:03.171Z,0
2016-11-03T19:52:36.169Z,0
2016-11-03T19:55:53.140Z,0
2016-11-03T19:59:30.617Z,0
2016-11-03T20:03:37.854Z,0
2016-11-03T20:07:18.673Z,0
2016-11-03T20:12:00.047Z,0
2016-11-03T20:20:17.563Z,0
2016-11-03T20:28:35.225Z,0
2016-11-03T20:32:41.095Z,0
2016-11-03T20:36:18.867Z,0
2016-11-03T20:39:55.629Z,0
2016-11-03T20:43:32.876Z,0
2016-11-03T20:48:04.090Z,0
2016-11-03T20:51:40.135Z,0
2016-11-03T20:54:57.532Z,0
2016-11-03T20:58:33.911Z,0
2016-11-03T21:02:10.900Z,0
2016-11-03T21:05:47.361Z,0
2016-11-03T21:09:45.219Z,0
2016-11-03T21:13:22.262Z,0
2016-11-03T21:16:59.307Z,0
2016-11-03T21:20:43.999Z,0
2016-11-03T21:24:22.358Z,0
2016-11-03T21:28:53.785Z,0
2016-11-03T21:32:25.855Z,0
2016-11-03T21:39:52.991Z,0
2016-11-03T21:43:56.779Z,0
2016-11-03T21:48:01.665Z,0
2016-11-03T21:51:38.114Z,0
2016-11-03T21:59:30.023Z,0
2016-11-03T22:03:06.838Z,0
2016-11-03T22:15:01.625Z,0
2016-11-03T22:18:58.920Z,0
2016-11-03T22:23:12.267Z,0
2016-11-03T22:26:51.034Z,0
2016-11-03T22:35:07.464Z,0
2016-11-03T22:43:22.588Z,0
2016-11-03T22:46:59.205Z,0
2016-11-03T22:50:37.244Z,0
2016-11-03T22:54:15.781Z,0
2016-11-03T22:57:54.920Z,0
2016-11-03T23:01:31.830Z,0
2016-11-03T23:05:08.704Z,0
2016-11-03T23:09:15.415Z,0
2016-11-03T23:18:02.593Z,0
2016-11-03T23:21:39.509Z,0
2016-11-03T23:25:16.055Z,0
2016-11-03T23:29:22.499Z,0
2016-11-03T23:33:00.508Z,0
2016-11-03T23:37:01.823Z,0
2016-11-03T23:40:46.275Z,0
2016-11-03T23:45:16.544Z,0
2016-11-03T23:48:53.225Z,0
2016-11-03T23:52:10.488Z,0
2016-11-03T23:55:47.201Z,0
2016-11-03T23:59:23.819Z,0
